createdAt,value
2023-04-08T00:02:05.294Z,60.74
2023-04-08T00:04:33.152Z,60.66
2023-04-08T00:07:01.001Z,60.76
2023-04-08T00:09:29.512Z,60.39
2023-04-08T00:11:57.670Z,60.44
2023-04-08T00:14:25.470Z,60.33
2023-04-08T00:17:02.903Z,60.18
2023-04-08T00:19:30.967Z,60.56
2023-04-08T00:21:58.779Z,60.47
2023-04-08T00:24:26.469Z,60.69
2023-04-08T00:26:56.466Z,60.45
2023-04-08T00:29:24.140Z,60.26
2023-04-08T00:34:29.437Z,60.42
2023-04-08T00:36:57.806Z,59.84
2023-04-08T00:39:25.654Z,60.25
2023-04-08T00:41:53.397Z,60.27
2023-04-08T00:44:21.364Z,60.10
2023-04-08T00:46:49.095Z,60.22
2023-04-08T00:49:17.491Z,59.96
2023-04-08T00:51:46.565Z,60.53
2023-04-08T00:54:14.434Z,60.32
2023-04-08T00:56:42.119Z,60.06
2023-04-08T00:59:09.844Z,59.85
2023-04-08T01:01:49.480Z,60.21
2023-04-08T01:04:28.666Z,59.60
2023-04-08T01:07:00.728Z,59.88
2023-04-08T01:09:31.163Z,60.14
2023-04-08T01:11:58.973Z,60.06
2023-04-08T01:14:27.779Z,60.20
2023-04-08T01:16:55.902Z,59.97
2023-04-08T01:19:28.132Z,59.87
2023-04-08T01:21:56.512Z,59.95
2023-04-08T01:24:29.169Z,59.99
2023-04-08T01:26:58.282Z,60.25
2023-04-08T01:29:26.114Z,59.99
2023-04-08T01:31:54.241Z,60.14
2023-04-08T01:34:22.002Z,59.95
2023-04-08T01:36:52.509Z,59.93
2023-04-08T01:39:21.428Z,59.90
2023-04-08T01:41:51.239Z,59.74
2023-04-08T01:44:20.287Z,59.84
2023-04-08T01:46:48.169Z,59.57
2023-04-08T01:49:15.905Z,59.80
2023-04-08T01:51:44.387Z,59.58
2023-04-08T01:54:12.065Z,59.86
2023-04-08T01:56:42.485Z,59.84
2023-04-08T01:59:11.734Z,60.09
2023-04-08T02:01:40.881Z,60.04
2023-04-08T02:04:08.721Z,60.19
2023-04-08T02:06:36.515Z,60.34
2023-04-08T02:09:04.423Z,60.45
2023-04-08T02:11:34.840Z,60.32
2023-04-08T02:14:02.968Z,60.36
2023-04-08T02:16:32.334Z,60.53
2023-04-08T02:19:04.730Z,60.51
2023-04-08T02:21:34.906Z,60.55
2023-04-08T02:24:03.987Z,60.36
2023-04-08T02:26:31.808Z,60.25
2023-04-08T02:28:59.770Z,60.78
2023-04-08T02:31:27.599Z,60.77
2023-04-08T02:33:56.241Z,60.72
2023-04-08T02:36:25.963Z,61.10
2023-04-08T02:38:53.578Z,61.14
2023-04-08T02:41:21.323Z,61.40
2023-04-08T02:43:49.236Z,61.11
2023-04-08T02:46:17.168Z,60.91
2023-04-08T02:48:44.928Z,61.49
2023-04-08T02:51:12.750Z,61.11
2023-04-08T02:53:41.822Z,61.25
2023-04-08T02:56:11.793Z,61.86
2023-04-08T02:58:41.021Z,61.71
2023-04-08T03:01:09.851Z,61.91
2023-04-08T03:03:37.792Z,61.74
2023-04-08T03:06:06.632Z,61.57
2023-04-08T03:08:34.414Z,61.59
2023-04-08T03:11:03.511Z,61.65
2023-04-08T03:13:31.781Z,62.23
2023-04-08T03:15:59.677Z,61.69
2023-04-08T03:18:28.794Z,61.95
2023-04-08T03:20:57.141Z,61.47
2023-04-08T03:23:24.856Z,61.74
2023-04-08T03:25:52.597Z,61.96
2023-04-08T03:28:21.671Z,61.80
2023-04-08T03:30:49.530Z,62.13
2023-04-08T03:33:17.492Z,61.90
2023-04-08T03:35:45.186Z,61.38
2023-04-08T03:38:13.021Z,61.60
2023-04-08T03:40:40.707Z,61.35
2023-04-08T03:43:09.403Z,62.03
2023-04-08T03:45:38.415Z,61.96
2023-04-08T03:48:06.595Z,61.56
2023-04-08T03:50:34.260Z,62.28
2023-04-08T03:53:02.093Z,61.88
2023-04-08T03:55:29.849Z,61.12
2023-04-08T03:57:57.615Z,61.60
2023-04-08T04:00:25.430Z,61.17
2023-04-08T04:02:56.021Z,62.28
2023-04-08T04:05:23.733Z,62.00
2023-04-08T04:07:51.561Z,61.62
2023-04-08T04:10:19.334Z,61.00
2023-04-08T04:12:47.651Z,60.95
2023-04-08T04:15:15.427Z,60.93
2023-04-08T04:17:56.593Z,61.51
2023-04-08T04:20:25.994Z,61.67
2023-04-08T04:22:53.836Z,61.11
2023-04-08T04:25:21.568Z,61.25
2023-04-08T04:27:49.362Z,61.16
2023-04-08T04:30:17.254Z,60.79
2023-04-08T04:32:44.981Z,61.07
2023-04-08T04:35:14.120Z,61.04
2023-04-08T04:37:41.872Z,61.83
2023-04-08T04:40:10.149Z,61.19
2023-04-08T04:42:37.839Z,61.64
2023-04-08T04:45:06.196Z,61.92
2023-04-08T04:47:33.871Z,61.29
2023-04-08T04:50:01.860Z,61.42
2023-04-08T04:52:30.862Z,61.63
2023-04-08T04:54:58.746Z,61.94
2023-04-08T04:57:26.628Z,61.76
2023-04-08T04:59:54.427Z,61.78
2023-04-08T05:02:22.157Z,61.76
2023-04-08T05:04:50.020Z,61.74
2023-04-08T05:07:17.816Z,61.16
2023-04-08T05:09:47.094Z,61.47
2023-04-08T05:12:14.865Z,61.36
2023-04-08T05:14:42.719Z,61.66
2023-04-08T05:17:12.529Z,61.41
2023-04-08T05:19:40.208Z,61.60
2023-04-08T05:22:10.135Z,62.11
2023-04-08T05:24:37.870Z,61.98
2023-04-08T05:27:07.073Z,61.39
2023-04-08T05:29:35.059Z,61.60
2023-04-08T05:32:03.845Z,61.14
2023-04-08T05:34:32.543Z,62.46
2023-04-08T05:37:00.334Z,61.71
2023-04-08T05:39:28.020Z,61.35
2023-04-08T05:41:56.030Z,61.96
2023-04-08T05:44:25.032Z,61.57
2023-04-08T05:46:52.806Z,61.47
2023-04-08T05:49:20.663Z,61.31
2023-04-08T05:51:48.418Z,61.45
2023-04-08T05:54:16.224Z,62.25
2023-04-08T05:56:46.288Z,61.38
2023-04-08T05:59:13.934Z,61.92
2023-04-08T06:01:43.153Z,61.64
2023-04-08T06:04:11.076Z,61.74
2023-04-08T06:06:39.007Z,61.37
2023-04-08T06:09:06.790Z,61.54
2023-04-08T06:11:34.555Z,61.92
2023-04-08T06:14:02.296Z,61.83
2023-04-08T06:16:30.131Z,61.82
2023-04-08T06:18:59.173Z,61.90
2023-04-08T06:21:27.702Z,61.96
2023-04-08T06:23:55.397Z,62.09
2023-04-08T06:26:23.059Z,61.50
2023-04-08T06:28:52.225Z,62.03
2023-04-08T06:33:47.748Z,61.75
2023-04-08T06:36:16.780Z,61.89
2023-04-08T06:38:44.516Z,61.77
2023-04-08T06:41:12.179Z,62.27
2023-04-08T06:43:40.457Z,61.73
2023-04-08T06:46:08.160Z,62.18
2023-04-08T06:48:38.994Z,62.22
2023-04-08T06:51:07.819Z,61.63
2023-04-08T06:53:37.166Z,62.00
2023-04-08T06:56:05.164Z,61.96
2023-04-08T06:58:33.065Z,61.59
2023-04-08T07:01:01.240Z,61.74
2023-04-08T07:03:29.078Z,61.36
2023-04-08T07:05:56.821Z,61.32
2023-04-08T07:08:24.583Z,61.88
2023-04-08T07:10:54.819Z,61.88
2023-04-08T07:13:22.521Z,61.76
2023-04-08T07:15:50.349Z,61.13
2023-04-08T07:18:18.002Z,61.51
2023-04-08T07:20:46.412Z,61.64
2023-04-08T07:23:14.209Z,61.19
2023-04-08T07:25:41.925Z,60.72
2023-04-08T07:28:10.970Z,61.15
2023-04-08T07:30:38.668Z,60.70
2023-04-08T07:33:06.548Z,60.83
2023-04-08T07:35:34.852Z,60.59
2023-04-08T07:38:02.677Z,60.39
2023-04-08T07:40:30.758Z,60.27
2023-04-08T07:42:58.538Z,60.30
2023-04-08T07:45:27.643Z,60.18
2023-04-08T07:47:55.601Z,60.14
2023-04-08T07:50:23.526Z,59.89
2023-04-08T07:52:53.195Z,60.01
2023-04-08T07:55:20.960Z,59.74
2023-04-08T07:57:54.540Z,59.74
2023-04-08T08:00:36.477Z,59.79
2023-04-08T08:03:04.572Z,59.65
2023-04-08T08:05:32.657Z,59.29
2023-04-08T08:08:00.350Z,59.07
2023-04-08T08:10:28.521Z,59.23
2023-04-08T08:12:56.281Z,58.93
2023-04-08T08:15:24.050Z,58.52
2023-04-08T08:17:53.186Z,58.72
2023-04-08T08:20:20.999Z,58.36
2023-04-08T08:22:57.264Z,58.46
2023-04-08T08:25:26.350Z,58.37
2023-04-08T08:27:55.387Z,57.43
2023-04-08T08:30:23.452Z,57.85
2023-04-08T08:32:52.193Z,58.10
2023-04-08T08:35:21.380Z,58.00
2023-04-08T08:37:49.218Z,57.47
2023-04-08T08:40:16.961Z,57.19
2023-04-08T08:42:51.392Z,56.68
2023-04-08T08:45:19.442Z,56.90
2023-04-08T08:47:48.982Z,56.76
2023-04-08T08:50:18.489Z,56.75
2023-04-08T08:52:56.519Z,56.35
2023-04-08T08:57:55.150Z,55.47
2023-04-08T09:00:34.475Z,56.00
2023-04-08T09:03:18.693Z,56.02
2023-04-08T09:05:50.572Z,55.81
2023-04-08T09:08:31.309Z,54.47
2023-04-08T09:11:12.341Z,54.55
2023-04-08T09:13:40.054Z,54.01
2023-04-08T09:16:09.567Z,53.46
2023-04-08T09:18:37.557Z,52.95
2023-04-08T09:21:06.071Z,53.01
2023-04-08T09:23:42.514Z,53.23
2023-04-08T09:26:11.082Z,52.78
2023-04-08T09:28:39.404Z,53.33
2023-04-08T09:31:23.025Z,53.15
2023-04-08T09:33:51.373Z,52.59
2023-04-08T09:36:20.275Z,52.73
2023-04-08T09:38:49.346Z,52.49
2023-04-08T09:41:17.924Z,52.12
2023-04-08T09:43:49.591Z,51.66
2023-04-08T09:46:19.126Z,52.20
2023-04-08T09:48:57.699Z,51.98
2023-04-08T09:51:25.482Z,51.99
2023-04-08T09:53:57.573Z,51.38
2023-04-08T09:56:25.993Z,48.93
2023-04-08T09:58:55.840Z,47.58
2023-04-08T10:01:26.169Z,46.79
2023-04-08T10:03:57.106Z,43.44
2023-04-08T10:06:28.869Z,40.47
2023-04-08T10:08:58.544Z,39.01
2023-04-08T10:11:26.242Z,38.55
2023-04-08T10:13:54.028Z,39.17
2023-04-08T10:16:23.028Z,40.31
2023-04-08T10:18:52.977Z,40.30
2023-04-08T10:21:37.098Z,39.04
2023-04-08T10:24:09.029Z,39.00
2023-04-08T10:26:38.314Z,38.46
2023-04-08T10:29:36.854Z,38.63
2023-04-08T10:32:04.600Z,39.80
2023-04-08T10:34:32.389Z,39.50
2023-04-08T10:37:02.061Z,40.03
2023-04-08T10:39:31.727Z,40.23
2023-04-08T10:41:59.474Z,40.67
2023-04-08T10:44:27.729Z,40.49
2023-04-08T10:46:55.586Z,41.29
2023-04-08T10:49:24.043Z,41.38
2023-04-08T10:51:52.369Z,41.80
2023-04-08T10:54:20.131Z,41.40
2023-04-08T10:56:50.101Z,40.93
2023-04-08T10:59:20.159Z,41.57
2023-04-08T11:01:48.034Z,40.73
2023-04-08T11:04:16.517Z,39.93
2023-04-08T11:06:44.787Z,39.99
2023-04-08T11:09:12.657Z,39.22
2023-04-08T11:11:40.393Z,39.63
2023-04-08T11:14:09.492Z,39.18
2023-04-08T11:16:38.494Z,38.04
2023-04-08T11:19:06.476Z,38.81
2023-04-08T11:21:41.343Z,38.69
2023-04-08T11:24:11.954Z,39.30
2023-04-08T11:26:39.762Z,39.79
2023-04-08T11:29:12.713Z,39.44
2023-04-08T11:31:40.550Z,39.86
2023-04-08T11:34:09.184Z,40.74
2023-04-08T11:36:37.111Z,41.18
2023-04-08T11:39:09.183Z,41.24
2023-04-08T11:41:40.431Z,40.56
2023-04-08T11:44:09.644Z,40.30
2023-04-08T11:46:37.768Z,40.22
2023-04-08T11:49:06.376Z,40.34
2023-04-08T11:51:35.420Z,40.38
2023-04-08T11:54:06.142Z,40.88
2023-04-08T11:56:37.575Z,41.06
2023-04-08T11:59:05.403Z,41.20
2023-04-08T12:01:34.593Z,40.98
2023-04-08T12:04:02.921Z,41.28
2023-04-08T12:06:31.606Z,41.07
2023-04-08T12:08:59.833Z,40.75
2023-04-08T12:11:27.626Z,40.88
2023-04-08T12:13:55.399Z,40.98
2023-04-08T12:16:23.374Z,41.00
2023-04-08T12:18:52.458Z,40.32
2023-04-08T12:21:20.248Z,40.11
2023-04-08T12:23:47.951Z,40.13
2023-04-08T12:26:15.631Z,39.37
2023-04-08T12:28:43.534Z,38.69
2023-04-08T12:31:11.298Z,38.08
2023-04-08T12:34:11.608Z,36.78
2023-04-08T12:40:51.181Z,37.40
2023-04-08T12:43:18.971Z,37.62
2023-04-08T12:45:46.635Z,38.39
2023-04-08T12:48:14.482Z,38.06
2023-04-08T12:50:42.124Z,38.07
2023-04-08T12:53:11.666Z,38.11
2023-04-08T12:55:39.555Z,38.12
2023-04-08T12:58:07.633Z,37.92
2023-04-08T13:00:38.148Z,38.37
2023-04-08T13:03:06.228Z,38.18
2023-04-08T13:05:43.107Z,38.40
2023-04-08T13:08:15.066Z,38.58
2023-04-08T13:10:44.890Z,39.12
2023-04-08T13:13:14.381Z,39.17
2023-04-08T13:15:42.372Z,40.04
2023-04-08T13:18:10.842Z,39.79
2023-04-08T13:20:39.211Z,40.09
2023-04-08T13:23:10.111Z,40.40
2023-04-08T13:25:39.571Z,40.57
2023-04-08T13:28:07.496Z,41.09
2023-04-08T13:30:35.866Z,41.41
2023-04-08T13:33:03.708Z,41.81
2023-04-08T13:35:31.518Z,41.99
2023-04-08T13:37:59.230Z,42.13
2023-04-08T13:40:27.894Z,42.15
2023-04-08T13:42:58.585Z,42.19
2023-04-08T13:45:34.512Z,42.27
2023-04-08T13:48:02.729Z,42.72
2023-04-08T13:50:32.827Z,42.35
2023-04-08T13:53:02.954Z,42.52
2023-04-08T13:55:31.088Z,42.42
2023-04-08T13:58:00.193Z,42.45
2023-04-08T14:00:28.020Z,42.97
2023-04-08T14:02:55.875Z,42.73
2023-04-08T14:05:23.728Z,42.64
2023-04-08T14:07:51.378Z,43.05
2023-04-08T14:10:19.004Z,43.42
2023-04-08T14:12:47.067Z,43.52
2023-04-08T14:15:16.344Z,43.60
2023-04-08T14:17:44.225Z,43.65
2023-04-08T14:20:12.198Z,43.89
2023-04-08T14:22:40.544Z,44.00
2023-04-08T14:25:08.711Z,43.57
2023-04-08T14:27:39.899Z,43.73
2023-04-08T14:30:16.691Z,44.13
2023-04-08T14:32:44.433Z,44.13
2023-04-08T14:35:12.382Z,44.53
2023-04-08T14:37:40.511Z,44.52
2023-04-08T14:40:09.462Z,44.65
2023-04-08T14:42:37.151Z,45.12
2023-04-08T14:45:05.268Z,44.97
2023-04-08T14:47:34.433Z,45.05
2023-04-08T14:50:02.146Z,45.35
2023-04-08T14:52:29.885Z,45.91
2023-04-08T14:54:57.583Z,45.52
2023-04-08T14:57:25.593Z,45.83
2023-04-08T14:59:54.119Z,45.79
2023-04-08T15:02:21.943Z,46.00
2023-04-08T15:04:51.075Z,45.86
2023-04-08T15:07:20.403Z,46.13
2023-04-08T15:09:48.146Z,46.14
2023-04-08T15:12:16.002Z,46.38
2023-04-08T15:14:43.678Z,46.67
2023-04-08T15:17:15.499Z,46.78
2023-04-08T15:19:43.245Z,46.49
2023-04-08T15:22:12.915Z,46.91
2023-04-08T15:24:40.541Z,46.77
2023-04-08T15:27:08.773Z,47.23
2023-04-08T15:29:43.223Z,47.42
2023-04-08T15:32:12.162Z,47.39
2023-04-08T15:34:39.807Z,47.19
2023-04-08T15:37:07.845Z,46.91
2023-04-08T15:39:37.029Z,47.82
2023-04-08T15:42:05.308Z,47.96
2023-04-08T15:44:33.475Z,47.75
2023-04-08T15:47:01.134Z,47.35
2023-04-08T15:49:28.888Z,47.95
2023-04-08T15:51:56.649Z,47.96
2023-04-08T15:54:24.428Z,47.42
2023-04-08T15:56:53.509Z,48.01
2023-04-08T15:59:21.468Z,47.84
2023-04-08T16:01:49.168Z,48.23
2023-04-08T16:04:17.297Z,47.95
2023-04-08T16:06:47.121Z,47.97
2023-04-08T16:09:16.800Z,47.53
2023-04-08T16:11:44.645Z,48.14
2023-04-08T16:14:13.943Z,47.82
2023-04-08T16:16:41.786Z,47.68
2023-04-08T16:19:10.072Z,47.81
2023-04-08T16:21:38.331Z,48.43
2023-04-08T16:24:06.973Z,48.26
2023-04-08T16:26:35.167Z,48.66
2023-04-08T16:29:03.143Z,48.50
2023-04-08T16:31:33.162Z,48.17
2023-04-08T16:34:01.199Z,48.37
2023-04-08T16:36:30.274Z,48.87
2023-04-08T16:38:58.322Z,48.75
2023-04-08T16:41:26.516Z,49.39
2023-04-08T16:43:54.682Z,49.53
2023-04-08T16:46:22.879Z,49.91
2023-04-08T16:48:52.267Z,49.55
2023-04-08T16:51:20.470Z,49.71
2023-04-08T16:53:49.040Z,49.48
2023-04-08T16:56:17.359Z,49.42
2023-04-08T16:58:45.567Z,49.48
2023-04-08T17:01:14.544Z,50.04
2023-04-08T17:03:42.838Z,49.32
2023-04-08T17:06:13.660Z,50.05
2023-04-08T17:08:43.641Z,49.88
2023-04-08T17:11:13.332Z,49.82
2023-04-08T17:13:41.917Z,49.76
2023-04-08T17:16:12.829Z,50.08
2023-04-08T17:18:40.708Z,50.42
2023-04-08T17:21:08.422Z,50.81
2023-04-08T17:23:37.619Z,50.57
2023-04-08T17:26:07.439Z,51.09
2023-04-08T17:28:35.345Z,50.50
2023-04-08T17:31:04.527Z,50.84
2023-04-08T17:33:33.999Z,50.90
2023-04-08T17:36:01.947Z,51.18
2023-04-08T17:38:29.927Z,51.44
2023-04-08T17:40:59.060Z,51.65
2023-04-08T17:43:27.369Z,51.36
2023-04-08T17:45:56.101Z,51.53
2023-04-08T17:48:24.460Z,51.66
2023-04-08T17:50:55.076Z,51.93
2023-04-08T17:53:23.056Z,52.58
2023-04-08T17:55:51.132Z,52.30
2023-04-08T17:58:20.998Z,52.67
2023-04-08T18:00:49.015Z,52.46
2023-04-08T18:03:18.402Z,52.85
2023-04-08T18:05:46.424Z,52.92
2023-04-08T18:08:16.408Z,53.05
2023-04-08T18:10:46.862Z,52.61
2023-04-08T18:13:15.528Z,52.91
2023-04-08T18:15:44.755Z,52.93
2023-04-08T18:18:15.002Z,53.11
2023-04-08T18:20:43.072Z,53.00
2023-04-08T18:23:11.142Z,53.21
2023-04-08T18:25:38.820Z,53.45
2023-04-08T18:28:06.690Z,53.61
2023-04-08T18:30:34.377Z,53.31
2023-04-08T18:33:03.851Z,53.48
2023-04-08T18:35:31.626Z,53.81
2023-04-08T18:38:00.409Z,53.40
2023-04-08T18:40:28.234Z,53.59
2023-04-08T18:42:56.087Z,53.92
2023-04-08T18:45:24.082Z,53.54
2023-04-08T18:47:52.288Z,53.83
2023-04-08T18:50:21.362Z,53.71
2023-04-08T18:52:49.518Z,53.71
2023-04-08T18:55:17.353Z,53.59
2023-04-08T18:57:45.104Z,53.91
2023-04-08T19:00:14.144Z,54.17
2023-04-08T19:02:41.977Z,53.91
2023-04-08T19:05:10.390Z,53.88
2023-04-08T19:07:39.543Z,53.48
2023-04-08T19:10:08.638Z,53.84
2023-04-08T19:12:36.546Z,53.95
2023-04-08T19:15:04.845Z,53.81
2023-04-08T19:17:32.553Z,53.67
2023-04-08T19:20:00.393Z,53.37
2023-04-08T19:22:28.186Z,53.45
2023-04-08T19:24:57.826Z,53.96
2023-04-08T19:27:27.057Z,53.88
2023-04-08T19:29:54.834Z,53.67
2023-04-08T19:32:22.735Z,53.51
2023-04-08T19:34:50.488Z,53.77
2023-04-08T19:37:18.164Z,54.30
2023-04-08T19:39:45.812Z,53.91
2023-04-08T19:42:15.465Z,54.53
2023-04-08T19:44:43.105Z,54.17
2023-04-08T19:47:10.958Z,54.53
2023-04-08T19:49:38.857Z,54.15
2023-04-08T19:52:06.821Z,54.25
2023-04-08T19:54:34.533Z,54.65
2023-04-08T19:57:02.499Z,54.24
2023-04-08T19:59:31.540Z,54.39
2023-04-08T20:01:59.487Z,54.69
2023-04-08T20:04:27.291Z,54.58
2023-04-08T20:06:55.254Z,54.71
2023-04-08T20:09:23.097Z,54.58
2023-04-08T20:11:51.016Z,55.23
2023-04-08T20:14:18.754Z,54.85
2023-04-08T20:16:48.911Z,54.91
2023-04-08T20:19:17.043Z,54.94
2023-04-08T20:21:44.836Z,55.01
2023-04-08T20:24:12.713Z,55.33
2023-04-08T20:26:40.636Z,55.22
2023-04-08T20:29:08.469Z,55.25
2023-04-08T20:31:36.231Z,54.98
2023-04-08T20:34:05.323Z,55.08
2023-04-08T20:36:34.248Z,55.36
2023-04-08T20:39:02.341Z,55.45
2023-04-08T20:41:30.081Z,55.42
2023-04-08T20:43:57.696Z,55.53
2023-04-08T20:46:25.805Z,55.73
2023-04-08T20:48:53.829Z,56.02
2023-04-08T20:51:23.195Z,56.17
2023-04-08T20:53:50.903Z,56.09
2023-04-08T20:56:18.590Z,56.05
2023-04-08T20:58:46.330Z,55.69
2023-04-08T21:01:14.104Z,56.15
2023-04-08T21:03:41.932Z,56.27
2023-04-08T21:06:16.801Z,56.21
2023-04-08T21:08:46.184Z,56.45
2023-04-08T21:11:13.942Z,56.36
2023-04-08T21:13:41.944Z,56.16
2023-04-08T21:16:09.832Z,56.18
2023-04-08T21:18:39.652Z,56.33
2023-04-08T21:21:07.617Z,56.32
2023-04-08T21:23:35.402Z,56.76
2023-04-08T21:26:04.441Z,56.38
2023-04-08T21:28:33.240Z,56.82
2023-04-08T21:31:08.782Z,56.68
2023-04-08T21:33:37.037Z,56.87
2023-04-08T21:36:06.111Z,56.68
2023-04-08T21:38:33.945Z,56.67
2023-04-08T21:41:01.797Z,56.92
2023-04-08T21:43:30.869Z,56.92
2023-04-08T21:45:58.619Z,57.01
2023-04-08T21:48:26.311Z,56.90
2023-04-08T21:50:54.192Z,57.17
2023-04-08T21:53:22.159Z,57.04
2023-04-08T21:55:49.930Z,57.12
2023-04-08T21:58:17.982Z,56.94
2023-04-08T22:00:47.319Z,57.23
2023-04-08T22:03:15.142Z,57.41
2023-04-08T22:05:43.089Z,57.44
2023-04-08T22:08:10.787Z,57.03
2023-04-08T22:10:38.638Z,57.17
2023-04-08T22:13:06.356Z,57.51
2023-04-08T22:15:34.219Z,57.29
2023-04-08T22:18:10.427Z,56.94
2023-04-08T22:20:38.638Z,57.21
2023-04-08T22:23:06.868Z,57.24
2023-04-08T22:25:37.853Z,57.63
2023-04-08T22:28:06.610Z,57.57
2023-04-08T22:30:34.837Z,57.32
2023-04-08T22:33:04.362Z,57.24
2023-04-08T22:35:32.794Z,57.61
2023-04-08T22:38:01.146Z,57.95
2023-04-08T22:40:29.354Z,58.06
2023-04-08T22:42:57.674Z,58.03
2023-04-08T22:45:26.005Z,57.48
2023-04-08T22:47:57.820Z,57.42
2023-04-08T22:50:27.678Z,57.53
2023-04-08T22:52:56.673Z,57.84
2023-04-08T22:55:24.726Z,58.04
2023-04-08T22:57:55.983Z,57.76
2023-04-08T23:00:24.470Z,57.84
2023-04-08T23:02:52.964Z,57.68
2023-04-08T23:05:20.993Z,58.05
2023-04-08T23:07:50.968Z,58.39
2023-04-08T23:10:19.624Z,58.43
2023-04-08T23:12:47.907Z,57.73
2023-04-08T23:15:16.656Z,58.34
2023-04-08T23:17:47.745Z,58.32
2023-04-08T23:20:18.334Z,58.17
2023-04-08T23:22:47.819Z,58.69
2023-04-08T23:25:18.270Z,58.75
2023-04-08T23:27:47.156Z,58.80
2023-04-08T23:30:15.723Z,59.03
2023-04-08T23:32:44.445Z,58.71
2023-04-08T23:35:13.779Z,58.90
2023-04-08T23:37:49.259Z,59.09
2023-04-08T23:40:30.010Z,59.35
2023-04-08T23:42:58.150Z,58.68
2023-04-08T23:45:26.131Z,58.76
2023-04-08T23:47:54.579Z,59.10
2023-04-08T23:50:23.104Z,59.16
2023-04-08T23:52:51.327Z,58.88
2023-04-08T23:55:20.731Z,59.40
2023-04-08T23:57:49.454Z,59.05
